Logo AVAMET
Benvolgut visitant, si us plau, ingressa Recuperar contrasenya

Inforatge Sueca el Perelló

Dades diàries. Acumulats / Últims 30 dies disponibles

Data Temperatura (°C) Humitat rel. (%) Pressió rel. (hPa) Vent (km/h) Precipitació
Mínima Mitjana Màxima Amplitud
tèrmica
Mínima Mitjana Màxima Mínima Mitjana Màxima Predom. Mitjana Ràfega
màxima
Total
(mm)
Índex-n
Mínima Mitjana Màxima Mínima Mitjana Màxima n
0 a 1
P0 max
mm 5'
Dades mensuals acumulades fins l'últim dia disponible
05/2019 7,9 13,1 20,3 17,7 17,3 21,4 32,7 24,8 27 74 94 1.002 1.014 1.025   12,3 66,7 1,0
Dades anuals acumulades fins l'últim dia disponible
2019 2,4 8,9 20,3 13,3 11,8 17,8 32,7 30,3 20 72 95 993 1.019 1.036   12,2 82,0 57,2
Últims 30 dies disponibles
20-05-2019 11,3     16,8     19,8 8,5 53 75 89 1.011 1.013 1.014 SSE 11,6 45,0 0,0
19-05-2019 11,7     17,0     21,7 10,0 35 70 86 1.009 1.010 1.013 SSE 11,1 38,9 0,0
18-05-2019 14,8     17,2     18,9 4,1 57 68 83 1.009 1.009 1.011 SSO 9,9 31,5 0,0
17-05-2019 14,9     19,9     24,1 9,2 33 53 88 1.002 1.005 1.008 ENE 29,3 66,7 0,0
16-05-2019 16,8     18,0     19,4 2,6 72 79 87 1.005 1.011 1.016 SSE 12,2 43,5 0,0
15-05-2019 12,4     17,3     19,9 7,5 73 82 87 1.011 1.013 1.016 ESE 9,4 37,0 0,0
14-05-2019 11,1     18,0     22,8 11,7 52 77 92 1.013 1.018 1.022 SE 11,5 45,0 0,0
13-05-2019 13,2     19,1     20,4 7,2 67 78 83 1.019 1.020 1.022 SSE 11,2 31,5 0,0
12-05-2019 13,2     16,9     19,9 6,7 51 80 92 1.023 1.024 1.025 ESE 6,6 31,5 0,0
11-05-2019 15,8     18,9     20,8 5,0 75 84 90 1.014 1.018 1.024 SE 8,5 24,1 0,0
10-05-2019 20,3     25,3     32,7 12,4 27 53 78 1.011 1.013 1.014 ENE 18,6 53,7 0,0
09-05-2019 18,8     23,2     29,4 10,6 37 54 70 1.010 1.012 1.014 ENE 21,6 55,6 0,0
08-05-2019 13,3     21,6     29,0 15,7 39 65 94 1.009 1.012 1.015 ENE 21,4 64,8 0,0
07-05-2019 11,8     16,2     21,0 9,2 77 87 93 1.014 1.017 1.019 SE 7,7 29,6 0,0
06-05-2019 8,4     14,4     17,7 9,3 69 84 91 1.017 1.019 1.020 ESE 9,3 31,5 0,0
05-05-2019 10,1     15,1     17,3 7,2 45 72 89 1.013 1.015 1.018 SSE 11,4 43,5 0,0
04-05-2019 7,9     14,1     19,5 11,6 45 77 93 1.010 1.013 1.014 SE 12,4 46,3 0,0
03-05-2019 9,3     13,6     17,4 8,1 73 83 92 1.011 1.013 1.016 ESE 8,2 40,7 0,6
02-05-2019 14,8     16,4     18,2 3,4 65 82 92 1.014 1.015 1.017 SSE 6,3 22,6 0,2
01-05-2019 11,4     15,3     18,3 6,9 79 87 93 1.013 1.015 1.017 SE 7,9 35,4 0,2
30-04-2019 11,8     15,8     18,1 6,3 78 86 93 1.016 1.017 1.019 SSE 8,8 32,2 0,0
29-04-2019 12,6     15,3     17,6 5,0 80 86 91 1.017 1.019 1.021 SE 8,5 37,0 0,0
28-04-2019 11,4     15,1     18,2 6,8 65 85 93 1.020 1.023 1.025 SE 9,1 33,9 0,0
27-04-2019 10,0     15,4     18,7 8,7 43 74 90 1.023 1.025 1.027 SE 10,7 35,4 0,0
26-04-2019 10,4     15,5     20,9 10,5 42 67 87 1.018 1.022 1.025 ESE 16,0 38,9 0,0
25-04-2019 13,6     16,8     21,3 7,7 46 68 80 1.009 1.012 1.018 NE 18,5 53,7 0,0
24-04-2019 8,2     14,8     20,8 12,6 43 67 82 1.005 1.009 1.011 SE 16,1 45,0 0,0
23-04-2019 11,8     15,6     19,1 7,3 59 77 89 999 1.000 1.004 ESE 10,6 56,3 1,2
20-04-2019 14,0     15,4     16,1 2,1 74 82 90 1.014 1.016 1.019 SE 32,3 77,8 4,0 0,42 0,40
19-04-2019 12,2     13,5     15,5 3,3 88 94 94 1.014 1.016 1.018 SSE 19,9 72,4 16,0 0,42 0,40
Últims 13 mesos disponibles
04/2019 6,8 10,7 14,6 14,8 15,4 18,9 29,3 22,5 52 73 94 1.000 1.014 1.025 SE 14,6 77,8 41,6
03/2019 4,2 8,1 13,5 13,3 13,2 18,1 27,7 23,5 52 71 87 1.012 1.023 1.030 S 10,3 61,1 12,8
02/2019 3,4 7,0 11,0 11,4 11,8 16,3 21,3 17,9 45 74 88 995 1.025 1.034 SSO 11,4 82,0 0,8
01/2019 2,4 6,9 11,9 10,7 12,3 15,8 20,2 17,8 54 68 84 1.002 1.019 1.031 OSO 12,4 72,4 1,0
12/2018 5,7 9,4 13,4 12,7 13,2 17,3 22,1 16,4 65 77 90 1.009 1.025 1.031 OSO 11,3 69,3 19,4
11/2018 7,6 12,1 17,7 14,7 14,4 18,0 21,9 14,3 63 78 93 1.001 1.015 1.024 OSO 12,6 83,7 165,4
10/2018 8,7 14,5 19,4 18,3 13,7 21,9 26,4 17,7 54 78 94 1.000 1.014 1.025 SO 10,2 72,4 302,2
09/2018 14,6 19,7 23,1 23,6 24,7 26,7 28,3 13,7 73 83 88 1.012 1.019 1.028 9,1 55,6 102,0
08/2018 18,0 22,4 26,1 26,0 26,2 29,0 34,7 16,7 73 81 87 1.012 1.016 1.021 10,4 68,5 3,2
07/2018 19,7 22,2 25,6 25,7 26,7 29,0 35,2 15,5 54 80 87 1.009 1.014 1.019 10,7 56,3 6,0
06/2018 14,6 19,0 22,8 22,6 22,2 25,6 28,5 13,9 60 77 87 1.010 1.015 1.021 10,7 48,3 43,4
05/2018 6,8 14,1 19,2 18,1 15,9 21,6 26,6 19,8 51 76 89 1.010 1.015 1.018 S 10,5 53,7 4,4
04/2018 7,5 11,1 14,7 15,4 14,2 19,4 28,1 20,6 50 72 89 996 1.014 1.025 SSE 13,8 80,6 14,4
Tots els anys disponibles
2018 1,2 14,1 26,1 17,8 8,3 21,5 35,2 34,0 46 76 94 993 1.016 1.035 S 12,0 98,2 769,4
2017 2,2 14,8 25,8 18,7 11,1 22,3 35,3 33,1 48 77 93 998 1.019 1.036 S 6,5 88,9 175,2
Temperatura (°C)
Humitat relativa (%)
Velocitat del vent i ràfega màxima (km/h)
Direcció del vent (°)
Pressió (hPa)
Precipitació (mm)
Nota sobre les dades: s'avisa a l'usuari de la provisionalitat i no oficialitat d'aquestes dades
Logo AVAMET blanc
Web allotjada a Sollutia
Llicència de Creative CommonsLa web d'AVAMET i els seus continguts estan subjectes a una llicència de
Reconeixement - No Comercial - Compartir igual
Properes estacions: Altea - Club Nàutic d'Altea (Soci), Ontinyent - El Pilar (Soci), Ares del Maestrat (Ajuntament Soci), Catadau - L'Altet (Inforatge)     - - - - -      Últimes estacions: Jacarilla - centro (MeteOrihuela), Elx - Maitino/Vallverda/Velarde/Matola/Ferriol (Soci TiempoElche.com), Orihuela - Playa Flamenca (MeteOrihuela), Puçol - Ciutat Jardí (Soci), Alzira - La Casella (Soci) - - -